WetterOnline ( https://www.wetteronline.de )

Wetter aktuell Salzwedel

Aktuelles Wetter: Lüchow (18m)

6-stündlich | Neueste Meldungen
Ortszeit Temperatur Wetter
Sa, 20.04. 2:00 5.9° C bedeckt
Fr, 19.04. 20:00 8.3° C bedeckt
Fr, 19.04. 14:00 8.8° C bewölkt
Fr, 19.04. 8:00 5.1° C leichter Regen
Fr, 19.04. 2:00 4.7° C bewölkt
Do, 18.04. 20:00 8.1° C bewölkt
Do, 18.04. 14:00 10.8° C bewölkt
Do, 18.04. 8:00 2.7° C wolkenlos
Ortszeit Temperatur Wetter
Sa, 20.04. 6:00 4.7° C bewölkt
Sa, 20.04. 5:50 4.7° C bewölkt
Sa, 20.04. 5:40 4.6° C bewölkt
Sa, 20.04. 5:30 4.5° C bewölkt
Sa, 20.04. 5:20 4.5° C bewölkt
Sa, 20.04. 5:10 4.5° C wolkig
Sa, 20.04. 5:00 5.0° C Regen
Sa, 20.04. 4:30 5.1° C leichter Regen
Sa, 20.04. 4:00 5.3° C leichter Regen
Sa, 20.04. 3:30 5.3° C Sprühregen
Sa, 20.04. 3:00 5.8° C bewölkt
Ortszeit Relative Feuchte Sichtweite
Sa, 20.04. 2:00 85% 60 km
Fr, 19.04. 20:00 75% 55 km
Fr, 19.04. 14:00 82% >70 km
Fr, 19.04. 8:00 91% 14 km
Fr, 19.04. 2:00 87% 35 km
Do, 18.04. 20:00 79% 65 km
Do, 18.04. 14:00 43% 65 km
Do, 18.04. 8:00 89% 35 km
Ortszeit Relative Feuchte Sichtweite
Sa, 20.04. 6:00 88% 40 km
Sa, 20.04. 5:50 88% -
Sa, 20.04. 5:40 90% -
Sa, 20.04. 5:30 89% 40 km
Sa, 20.04. 5:20 89% -
Sa, 20.04. 5:10 89% -
Sa, 20.04. 5:00 89% 45 km
Sa, 20.04. 4:30 90% 13 km
Sa, 20.04. 4:00 89% 45 km
Sa, 20.04. 3:30 88% 40 km
Sa, 20.04. 3:00 86% 60 km
Ortszeit Niederschlagsmenge Niederschlagsart
Sa, 20.04. 2:00 1 l/m2 in 6 Std. Regen
Fr, 19.04. 20:00 4 l/m2 in 12 Std. Regen
Fr, 19.04. 14:00 3 l/m2 in 6 Std. Regen
Fr, 19.04. 8:00 0.4 l/m2 in 12 Std. Regen
Fr, 19.04. 2:00 0.0 l/m2 in 6 Std. -
Do, 18.04. 20:00 1 l/m2 in 12 Std. Regen
Do, 18.04. 14:00 0.0 l/m2 in 6 Std. -
Do, 18.04. 8:00 0.1 l/m2 in 12 Std. -
Ortszeit Niederschlagsmenge Niederschlagsart
Sa, 20.04. 6:00 <0.05 l/m2 in 1 Std. Sprühregen
Sa, 20.04. 5:50 keine Meldung -
Sa, 20.04. 5:40 keine Meldung -
Sa, 20.04. 5:30 0.0 l/m2 in 30 Min -
Sa, 20.04. 5:20 keine Meldung -
Sa, 20.04. 5:10 keine Meldung -
Sa, 20.04. 5:00 0.4 l/m2 in 1 Std. Regen
Sa, 20.04. 4:30 0.3 l/m2 in 30 Min -
Sa, 20.04. 4:00 <0.05 l/m2 in 1 Std. Regen
Sa, 20.04. 3:30 <0.05 l/m2 in 30 Min -
Sa, 20.04. 3:00 0.0 l/m2 in 1 Std. -
Ortszeit Stärke Spitze Richtung
km/h Bft. km/h Grad Sektor
Sa, 20.04. 2:00 18 3 40 350° N
Fr, 19.04. 20:00 11 2 32 260° W
Fr, 19.04. 14:00 9 2 39 280° W
Fr, 19.04. 8:00 19 3 33 210° SW
Fr, 19.04. 2:00 9 2 13 210° SW
Do, 18.04. 20:00 9 2 44 250° W
Do, 18.04. 14:00 9 2 22 280° W
Do, 18.04. 8:00 4 1 7 330° NW
Ortszeit Stärke Spitze Richtung
km/h Bft. km/h Grad Sektor
Sa, 20.04. 6:00 9 2 20 330° NW
Sa, 20.04. 5:50 9 2 - 330° NW
Sa, 20.04. 5:40 11 2 - 340° N
Sa, 20.04. 5:30 11 2 22 350° N
Sa, 20.04. 5:20 11 2 - 350° N
Sa, 20.04. 5:10 13 3 - 340° N
Sa, 20.04. 5:00 15 3 26 340° N
Sa, 20.04. 4:30 13 3 26 360° N
Sa, 20.04. 4:00 13 3 28 350° N
Sa, 20.04. 3:30 17 3 28 340° N
Sa, 20.04. 3:00 15 3 33 350° N
Ortszeit Untergrenze Bedeckung Gattung
total tief tief mittel hoch
Sa, 20.04. 2:00 480 m 8/8 8/8 - - -
Fr, 19.04. 20:00 1500 m 8/8 8/8 - - -
Fr, 19.04. 14:00 810 m 8/8 7/8 - - -
Fr, 19.04. 8:00 420 m 8/8 8/8 - - -
Fr, 19.04. 2:00 1380 m 8/8 4/8 - - -
Do, 18.04. 20:00 1080 m 8/8 4/8 - - -
Do, 18.04. 14:00 1800 m 7/8 7/8 - - -
Do, 18.04. 8:00 - 0/8 0/8 - - -
Ortszeit Bedeckungsgrad in Achtel und Wolkenuntergrenze
Sa, 20.04. 6:00 1(330m) 7(780m) 7(1020m)
Sa, 20.04. 5:50 1(330m) 7(780m) 7(1020m)
Sa, 20.04. 5:40 7
Sa, 20.04. 5:30 1(420m) 7(1020m)
Sa, 20.04. 5:20 1(420m) 7(1020m)
Sa, 20.04. 5:10 6
Sa, 20.04. 5:00 7(450m) 7(720m)
Sa, 20.04. 4:30 2(240m) 7(450m) 8(960m)
Sa, 20.04. 4:00 4(360m) 6(540m) 8(750m)
Sa, 20.04. 3:30 7(450m) 7(630m)
Sa, 20.04. 3:00 7(510m)
Ortszeit Luftdruck NN (hPa) Tendenz (hPa in 3 Std.)
Sa, 20.04. 2:00 1007 + 4,3
Fr, 19.04. 20:00 1000 + 0,3
Fr, 19.04. 14:00 1001 - 1,7
Fr, 19.04. 8:00 1006 - 3,9
Fr, 19.04. 2:00 1013 - 1,8
Do, 18.04. 20:00 1015 + 0,3
Do, 18.04. 14:00 1016 - 0,5
Do, 18.04. 8:00 1016 + 1,8
Ortszeit Luftdruck NN (hPa) Tendenz (hPa in 3 Std.)
Sa, 20.04. 6:00 1012 + 3,5
Sa, 20.04. 5:50 1012 keine Meldung
Sa, 20.04. 5:40 1012 keine Meldung
Sa, 20.04. 5:30 1012 + 3,6
Sa, 20.04. 5:20 1012 keine Meldung
Sa, 20.04. 5:10 1011 keine Meldung
Sa, 20.04. 5:00 1011 + 3,8
Sa, 20.04. 4:30 1010 + 3,7
Sa, 20.04. 4:00 1010 + 3,7
Sa, 20.04. 3:30 1009 + 3,9
Sa, 20.04. 3:00 1009 + 4,0
Ortszeit Schneehöhe (cm)
Sa, 20.04. 2:00 0
Fr, 19.04. 20:00 0
Fr, 19.04. 14:00 0
Fr, 19.04. 8:00 0
Fr, 19.04. 2:00 0
Do, 18.04. 20:00 0
Do, 18.04. 14:00 0
Do, 18.04. 8:00 0
Ortszeit Schneehöhe (cm)
Sa, 20.04. 6:00 0
Sa, 20.04. 5:50 0
Sa, 20.04. 5:40 -
Sa, 20.04. 5:30 0
Sa, 20.04. 5:20 0
Sa, 20.04. 5:10 -
Sa, 20.04. 5:00 0
Sa, 20.04. 4:30 0
Sa, 20.04. 4:00 0
Sa, 20.04. 3:30 0
Sa, 20.04. 3:00 0
Link zu dieser Seite / Seite empfehlen

Das Wetter in ...